createdAt,value
2018-06-01T00:01:44.843Z,72.00
2018-06-01T00:06:46.770Z,72.70
2018-06-01T00:11:48.488Z,83.70
2018-06-01T00:16:51.382Z,92.80
2018-06-01T00:21:53.810Z,96.30
2018-06-01T00:27:00.232Z,96.30
2018-06-01T00:32:02.727Z,90.80
2018-06-01T00:37:05.417Z,92.90
2018-06-01T00:42:09.232Z,92.90
2018-06-01T00:47:13.150Z,94.50
2018-06-01T00:52:17.939Z,94.50
2018-06-01T00:57:23.708Z,94.90
2018-06-01T01:02:26.760Z,94.70
2018-06-01T01:07:28.926Z,94.70
2018-06-01T01:12:30.413Z,94.20
2018-06-01T01:17:32.685Z,95.30
2018-06-01T01:22:34.321Z,95.20
2018-06-01T01:27:36.051Z,95.80
2018-06-01T01:32:37.659Z,95.40
2018-06-01T01:37:39.214Z,95.40
2018-06-01T01:42:40.746Z,95.30
2018-06-01T01:47:42.440Z,94.70
2018-06-01T01:52:44.201Z,94.60
2018-06-01T01:57:46.961Z,95.30
2018-06-01T02:02:48.721Z,95.80
2018-06-01T02:07:50.453Z,95.70
2018-06-01T02:12:52.990Z,95.90
2018-06-01T02:17:54.794Z,96.10
2018-06-01T02:22:56.649Z,96.50
2018-06-01T02:27:58.512Z,96.50
2018-06-01T02:33:00.877Z,97.00
2018-06-01T02:38:02.376Z,97.00
2018-06-01T02:43:03.919Z,96.80
2018-06-01T02:48:05.472Z,97.30
2018-06-01T02:53:07.320Z,96.60
2018-06-01T02:58:09.003Z,96.40
2018-06-01T03:03:10.754Z,96.30
2018-06-01T03:08:19.620Z,96.10
2018-06-01T03:13:28.437Z,96.40
2018-06-01T03:18:30.197Z,94.80
2018-06-01T03:23:32.796Z,96.30
2018-06-01T03:28:34.323Z,96.20
2018-06-01T03:33:36.540Z,95.50
2018-06-01T03:38:38.207Z,94.90
2018-06-01T03:43:40.467Z,95.70
2018-06-01T03:48:41.975Z,95.70
2018-06-01T03:53:44.528Z,93.80
2018-06-01T03:58:46.834Z,92.70
2018-06-01T04:03:49.190Z,93.00
2018-06-01T04:08:53.693Z,93.00
2018-06-01T04:13:55.359Z,92.70
2018-06-01T04:18:56.903Z,92.40
2018-06-01T04:23:59.590Z,92.70
2018-06-01T04:29:01.883Z,91.20
2018-06-01T04:34:03.699Z,91.10
2018-06-01T04:39:05.428Z,89.80
2018-06-01T04:44:07.806Z,88.30
2018-06-01T04:49:10.324Z,87.90
2018-06-01T04:54:11.995Z,87.90
2018-06-01T04:59:13.567Z,86.90
2018-06-01T05:04:15.423Z,86.30
2018-06-01T05:09:16.934Z,87.00
2018-06-01T05:14:18.511Z,86.90
2018-06-01T05:19:20.237Z,86.50
2018-06-01T05:24:22.131Z,86.90
2018-06-01T05:29:23.821Z,86.90
2018-06-01T05:34:25.543Z,86.20
2018-06-01T05:39:27.117Z,85.80
2018-06-01T05:44:28.726Z,85.50
2018-06-01T05:49:30.247Z,86.70
2018-06-01T05:54:32.015Z,87.10
2018-06-01T05:59:35.791Z,86.00
2018-06-01T06:04:37.622Z,86.00
2018-06-01T06:09:40.095Z,86.10
2018-06-01T06:14:42.394Z,85.80
2018-06-01T06:19:43.920Z,85.80
2018-06-01T06:24:45.608Z,84.90
2018-06-01T06:29:50.152Z,82.70
2018-06-01T06:34:55.625Z,81.00
2018-06-01T06:39:59.129Z,81.00
2018-06-01T06:45:03.521Z,80.10
2018-06-01T06:50:08.843Z,79.60
2018-06-01T06:55:13.990Z,79.00
2018-06-01T07:00:19.293Z,76.30
2018-06-01T07:05:24.520Z,75.60
2018-06-01T07:10:29.530Z,75.40
2018-06-01T07:15:35.883Z,74.00
2018-06-01T07:20:41.227Z,79.10
2018-06-01T07:25:48.711Z,77.70
2018-06-01T07:30:54.932Z,77.60
2018-06-01T07:35:59.947Z,76.30
2018-06-01T07:41:05.535Z,74.60
2018-06-01T07:46:14.748Z,71.70
2018-06-01T07:51:21.788Z,65.60
2018-06-01T07:56:28.269Z,59.00
2018-06-01T08:01:35.139Z,64.90
2018-06-01T08:06:41.955Z,64.80
2018-06-01T08:11:48.689Z,65.50
2018-06-01T08:16:51.093Z,64.30
2018-06-01T08:21:59.781Z,63.40
2018-06-01T08:27:01.452Z,63.40
2018-06-01T08:32:03.310Z,61.90
2018-06-01T08:37:05.560Z,55.50
2018-06-01T08:42:07.302Z,55.50
2018-06-01T08:47:08.893Z,56.20
2018-06-01T08:52:10.416Z,57.00
2018-06-01T08:57:11.988Z,57.50
2018-06-01T09:02:13.741Z,58.60
2018-06-01T09:07:16.024Z,58.30
2018-06-01T09:12:18.544Z,58.60
2018-06-01T09:17:20.414Z,58.50
2018-06-01T09:22:22.192Z,59.90
2018-06-01T09:27:23.759Z,60.60
2018-06-01T09:32:25.544Z,59.50
2018-06-01T09:37:27.215Z,61.50
2018-06-01T09:42:29.094Z,60.70
2018-06-01T09:47:30.674Z,59.80
2018-06-01T09:52:32.355Z,59.60
2018-06-01T09:57:34.191Z,58.90
2018-06-01T10:02:35.958Z,59.00
2018-06-01T10:07:37.729Z,55.90
2018-06-01T10:12:39.479Z,53.40
2018-06-01T10:17:41.930Z,52.20
2018-06-01T10:22:43.754Z,51.40
2018-06-01T10:27:45.541Z,51.30
2018-06-01T10:32:47.311Z,51.10
2018-06-01T10:37:48.851Z,49.20
2018-06-01T10:42:50.396Z,49.10
2018-06-01T10:47:52.237Z,48.70
2018-06-01T10:52:53.996Z,49.40
2018-06-01T10:57:55.769Z,45.90
2018-06-01T11:02:57.315Z,42.60
2018-06-01T11:07:59.800Z,46.80
2018-06-01T11:13:02.211Z,47.30
2018-06-01T11:18:03.777Z,47.30
2018-06-01T11:23:05.304Z,45.20
2018-06-01T11:28:07.165Z,46.50
2018-06-01T11:33:08.748Z,48.30
2018-06-01T11:38:10.295Z,49.50
2018-06-01T11:43:12.011Z,49.40
2018-06-01T11:48:13.898Z,48.70
2018-06-01T11:53:15.422Z,48.00
2018-06-01T11:58:17.158Z,49.50
2018-06-01T12:03:18.917Z,49.80
2018-06-01T12:08:20.684Z,48.10
2018-06-01T12:13:22.321Z,45.40
2018-06-01T12:18:24.607Z,48.10
2018-06-01T12:23:26.933Z,45.80
2018-06-01T12:28:28.523Z,45.20
2018-06-01T12:33:30.054Z,47.40
2018-06-01T12:38:32.306Z,46.00
2018-06-01T12:43:33.848Z,46.00
2018-06-01T12:48:35.384Z,48.60
2018-06-01T12:53:37.083Z,51.10
2018-06-01T12:58:38.618Z,49.20
2018-06-01T13:03:40.126Z,50.20
2018-06-01T13:08:41.703Z,51.10
2018-06-01T13:13:43.516Z,50.10
2018-06-01T13:18:45.136Z,51.80
2018-06-01T13:23:46.659Z,49.60
2018-06-01T13:28:48.305Z,49.30
2018-06-01T13:33:49.917Z,49.50
2018-06-01T13:48:29.677Z,51.10
2018-06-01T13:53:31.365Z,52.80
2018-06-01T13:58:33.679Z,50.70
2018-06-01T14:03:43.523Z,50.70
2018-06-01T14:08:45.119Z,47.70
2018-06-01T14:13:46.832Z,46.10
2018-06-01T14:18:49.139Z,46.00
2018-06-01T14:23:51.517Z,45.70
2018-06-01T14:28:58.244Z,46.00
2018-06-01T14:33:59.827Z,46.70
2018-06-01T14:39:02.427Z,45.00
2018-06-01T14:44:04.349Z,45.60
2018-06-01T14:49:06.664Z,48.70
2018-06-01T14:54:08.216Z,48.70
2018-06-01T14:59:09.786Z,47.90
2018-06-01T15:04:11.352Z,48.40
2018-06-01T15:09:13.853Z,46.60
2018-06-01T15:14:15.403Z,46.60
2018-06-01T15:19:17.676Z,44.80
2018-06-01T15:24:20.009Z,45.40
2018-06-01T15:29:21.583Z,45.10
2018-06-01T15:34:23.177Z,47.00
2018-06-01T15:39:24.799Z,47.90
2018-06-01T15:44:26.300Z,46.80
2018-06-01T15:49:27.870Z,46.10
2018-06-01T15:54:29.395Z,46.50
2018-06-01T15:59:31.175Z,46.00
2018-06-01T16:04:32.747Z,47.50
2018-06-01T16:09:34.288Z,47.80
2018-06-01T16:14:36.607Z,48.70
2018-06-01T16:19:38.231Z,48.70
2018-06-01T16:24:39.788Z,48.40
2018-06-01T16:29:41.377Z,49.30
2018-06-01T16:34:43.825Z,49.90
2018-06-01T16:39:45.497Z,49.90
2018-06-01T16:44:47.033Z,50.00
2018-06-01T16:49:48.641Z,50.40
2018-06-01T16:54:50.348Z,50.60
2018-06-01T16:59:52.912Z,50.80
2018-06-01T17:04:54.524Z,50.80
2018-06-01T17:09:56.255Z,50.70
2018-06-01T17:14:57.880Z,50.80
2018-06-01T17:19:59.432Z,50.50
2018-06-01T17:25:01.026Z,50.40
2018-06-01T17:30:02.563Z,49.70
2018-06-01T17:35:04.114Z,50.50
2018-06-01T17:40:06.618Z,50.70
2018-06-01T17:45:08.931Z,51.00
2018-06-01T17:50:10.519Z,51.00
2018-06-01T17:55:12.123Z,50.50
2018-06-01T18:00:14.388Z,53.40
2018-06-01T18:05:15.981Z,53.30
2018-06-01T18:10:18.327Z,55.20
2018-06-01T18:15:19.911Z,55.20
2018-06-01T18:20:21.423Z,55.20
2018-06-01T18:25:22.977Z,56.90
2018-06-01T18:30:25.268Z,58.30
2018-06-01T18:35:27.857Z,57.90
2018-06-01T18:40:30.855Z,57.90
2018-06-01T18:45:32.560Z,57.90
2018-06-01T18:50:34.305Z,57.90
2018-06-01T18:55:36.834Z,58.50
2018-06-01T19:00:38.878Z,58.80
2018-06-01T19:05:41.803Z,59.90
2018-06-01T19:10:43.623Z,59.70
2018-06-01T19:15:45.643Z,59.70
2018-06-01T19:20:47.439Z,60.00
2018-06-01T19:25:50.515Z,60.90
2018-06-01T19:30:52.753Z,60.90
2018-06-01T19:35:54.442Z,61.00
2018-06-01T19:40:56.842Z,61.50
2018-06-01T19:45:58.596Z,61.30
2018-06-01T19:51:01.693Z,60.90
2018-06-01T19:56:04.323Z,60.00
2018-06-01T20:01:06.078Z,61.10
2018-06-01T20:06:08.906Z,63.20
2018-06-01T20:11:10.558Z,63.10
2018-06-01T20:16:13.236Z,63.40
2018-06-01T20:21:17.355Z,65.30
2018-06-01T20:26:19.534Z,65.10
2018-06-01T20:31:21.894Z,67.40
2018-06-01T20:36:23.619Z,67.30
2018-06-01T20:41:25.297Z,69.30
2018-06-01T20:46:26.916Z,70.90
2018-06-01T20:51:29.529Z,72.40
2018-06-01T20:56:32.383Z,75.00
2018-06-01T21:01:33.943Z,74.90
2018-06-01T21:06:35.818Z,73.30
2018-06-01T21:11:37.529Z,71.80
2018-06-01T21:16:39.547Z,71.60
2018-06-01T21:21:41.344Z,71.60
2018-06-01T21:26:43.964Z,71.10
2018-06-01T21:31:45.591Z,72.30
2018-06-01T21:36:47.135Z,71.50
2018-06-01T21:41:49.441Z,72.00
2018-06-01T21:46:52.095Z,72.00
2018-06-01T21:51:54.268Z,72.70
2018-06-01T21:56:56.155Z,72.80
2018-06-01T22:01:57.851Z,72.10
2018-06-01T22:07:00.593Z,73.30
2018-06-01T22:12:09.985Z,74.30
2018-06-01T22:17:13.866Z,74.60
2018-06-01T22:22:16.095Z,75.00
2018-06-01T22:27:18.789Z,77.90
2018-06-01T22:32:20.559Z,77.70
2018-06-01T22:37:23.238Z,78.60
2018-06-01T22:42:25.168Z,78.50
2018-06-01T22:47:27.395Z,79.20
2018-06-01T22:52:30.201Z,79.50
2018-06-01T22:57:31.823Z,78.70
2018-06-01T23:02:34.039Z,79.30
2018-06-01T23:07:35.715Z,79.60
2018-06-01T23:12:38.098Z,80.50
2018-06-01T23:17:44.205Z,81.10
2018-06-01T23:22:47.146Z,81.00
2018-06-01T23:27:50.493Z,79.60
2018-06-01T23:32:53.309Z,80.50
2018-06-01T23:37:55.266Z,81.30
2018-06-01T23:42:57.032Z,81.60
2018-06-01T23:47:59.415Z,82.40
2018-06-01T23:53:01.599Z,82.10
2018-06-01T23:58:03.272Z,81.90
